Time;durP1;ratioP1;P1;durP2;ratioP2;P2;SDS_P1;SDS_P2;PMS_P1;PMS_P2;Temp;Humidity;BMP_temperature;BMP_pressure;BME280_temperature;BME280_humidity;BME280_pressure;Samples;Min_cycle;Max_cycle;Signal;HPM_P1;HPM_P2
2023/05/03 04:04:30;;;;;;;4.18;3.50;;;7.60;99.90;;;;;;6083475;23;20199;-71
2023/05/03 04:06:56;;;;;;;2.72;2.53;;;7.70;99.90;;;;;;4933540;29;20231;-71
2023/05/03 04:09:22;;;;;;;3.30;3.00;;;7.70;99.90;;;;;;4936823;29;20647;-72
2023/05/03 04:11:48;;;;;;;6.47;4.03;;;7.70;99.90;;;;;;4930707;29;20275;-71
2023/05/03 04:14:13;;;;;;;2.93;2.13;;;7.70;99.90;;;;;;4915018;29;20693;-71
2023/05/03 04:16:39;;;;;;;2.67;2.47;;;7.70;99.90;;;;;;4899090;29;20179;-72
2023/05/03 04:19:05;;;;;;;2.03;1.93;;;7.70;99.90;;;;;;4899082;29;20222;-71
2023/05/03 04:21:31;;;;;;;2.10;1.90;;;7.80;99.90;;;;;;4899222;29;20556;-72
2023/05/03 04:23:57;;;;;;;3.95;2.67;;;7.80;99.90;;;;;;4904092;29;20184;-71
2023/05/03 04:26:23;;;;;;;3.55;2.33;;;7.90;99.90;;;;;;4917570;29;20204;-72
2023/05/03 04:28:50;;;;;;;2.85;2.22;;;7.90;99.90;;;;;;4917866;29;20269;-71
2023/05/03 04:31:16;;;;;;;5.78;2.80;;;8.00;99.90;;;;;;4917595;29;20177;-71
2023/05/03 04:33:42;;;;;;;3.17;2.90;;;8.10;99.90;;;;;;4916861;29;20178;-77
2023/05/03 04:36:09;;;;;;;3.13;2.27;;;8.20;99.90;;;;;;4915878;29;20605;-71
2023/05/03 04:38:35;;;;;;;3.20;2.90;;;8.30;99.90;;;;;;4917894;29;20202;-71
2023/05/03 04:41:02;;;;;;;2.60;2.37;;;8.40;99.90;;;;;;4917853;29;20565;-71
2023/05/03 04:43:27;;;;;;;1.75;1.40;;;8.50;99.90;;;;;;4917441;29;20234;-72
2023/05/03 04:45:53;;;;;;;5.17;3.57;;;8.60;99.90;;;;;;4918067;29;20214;-72
2023/05/03 04:48:18;;;;;;;2.80;2.10;;;8.70;99.90;;;;;;4916408;29;20186;-71
2023/05/03 04:50:44;;;;;;;5.00;3.50;;;8.90;99.90;;;;;;4917472;29;20198;-72
2023/05/03 04:53:10;;;;;;;5.22;4.15;;;9.10;99.90;;;;;;4917453;29;20174;-70
2023/05/03 04:55:36;;;;;;;3.80;3.50;;;9.30;99.90;;;;;;4917272;29;20676;-71
2023/05/03 04:58:02;;;;;;;3.87;2.50;;;9.70;99.90;;;;;;4917097;29;20214;-72
2023/05/03 05:00:27;;;;;;;2.93;2.63;;;9.90;99.90;;;;;;4917452;29;20174;-72
2023/05/03 05:02:53;;;;;;;2.17;1.80;;;10.10;99.90;;;;;;4917164;29;20231;-72
2023/05/03 05:05:19;;;;;;;3.00;2.50;;;10.20;99.90;;;;;;4916649;29;20209;-71
2023/05/03 05:07:44;;;;;;;3.97;3.10;;;10.20;99.90;;;;;;4917210;29;20174;-71
2023/05/03 05:10:11;;;;;;;3.17;2.87;;;10.20;99.90;;;;;;4916082;29;20185;-71
2023/05/03 05:12:37;;;;;;;3.88;2.92;;;10.30;99.90;;;;;;4917272;29;20505;-70
2023/05/03 05:15:03;;;;;;;4.07;2.50;;;10.30;99.90;;;;;;4907045;29;20224;-71
2023/05/03 05:17:29;;;;;;;3.63;3.20;;;10.30;99.90;;;;;;4904164;29;20496;-70
2023/05/03 05:19:55;;;;;;;3.88;3.58;;;10.30;99.90;;;;;;4916653;29;20424;-70
2023/05/03 05:22:20;;;;;;;3.37;2.50;;;10.40;99.90;;;;;;4917180;29;20176;-71
2023/05/03 05:24:46;;;;;;;3.73;2.73;;;10.50;99.90;;;;;;4908960;29;20696;-66
2023/05/03 05:27:12;;;;;;;4.07;2.93;;;10.70;99.90;;;;;;4904543;29;20290;-69
2023/05/03 05:29:37;;;;;;;4.07;3.40;;;10.90;99.90;;;;;;4915565;29;20310;-68
2023/05/03 05:32:04;;;;;;;4.37;3.67;;;11.00;99.90;;;;;;4926173;29;20638;-68
2023/05/03 05:34:30;;;;;;;5.53;3.70;;;11.20;99.90;;;;;;4926548;29;20207;-71
2023/05/03 05:36:56;;;;;;;3.00;2.70;;;11.30;99.90;;;;;;4929369;29;20487;-66
2023/05/03 05:39:22;;;;;;;3.43;3.10;;;11.40;99.90;;;;;;4925647;29;20471;-67
2023/05/03 05:41:48;;;;;;;2.97;2.70;;;11.40;99.90;;;;;;4921881;29;20273;-63
2023/05/03 05:44:14;;;;;;;3.63;3.10;;;11.70;99.90;;;;;;4920224;29;20843;-69
2023/05/03 05:46:40;;;;;;;5.40;3.80;;;12.00;99.90;;;;;;4919285;29;20472;-67
2023/05/03 05:49:06;;;;;;;3.70;3.10;;;12.30;99.90;;;;;;4912245;29;20181;-69
2023/05/03 05:51:31;;;;;;;4.67;3.80;;;12.40;99.90;;;;;;4920000;29;20786;-70
2023/05/03 05:53:57;;;;;;;2.87;2.67;;;12.50;99.90;;;;;;4920556;29;20261;-68
2023/05/03 05:56:23;;;;;;;4.20;2.60;;;12.50;99.90;;;;;;4921374;29;20639;-66
2023/05/03 05:58:48;;;;;;;4.13;2.70;;;12.50;99.90;;;;;;4916399;29;20189;-67
2023/05/03 06:01:14;;;;;;;4.57;3.60;;;12.50;99.90;;;;;;4913490;29;20492;-67
2023/05/03 06:03:40;;;;;;;3.10;2.83;;;12.60;99.90;;;;;;4919562;29;20181;-70
2023/05/03 06:06:05;;;;;;;6.80;2.70;;;12.80;99.90;;;;;;4920393;29;20630;-67
2023/05/03 06:08:31;;;;;;;3.70;2.80;;;13.00;99.90;;;;;;4916933;29;20174;-68
2023/05/03 06:10:57;;;;;;;3.57;3.23;;;13.10;99.90;;;;;;4884336;29;20182;-70
2023/05/03 06:13:23;;;;;;;3.00;2.80;;;13.10;99.90;;;;;;4901089;29;20754;-68
2023/05/03 06:15:49;;;;;;;3.03;2.73;;;13.00;99.90;;;;;;4901019;29;20197;-65
2023/05/03 06:18:15;;;;;;;3.20;2.93;;;13.10;99.90;;;;;;4901518;29;20415;-66
2023/05/03 06:20:41;;;;;;;5.07;2.80;;;13.10;99.90;;;;;;4919280;29;20170;-67
2023/05/03 06:23:07;;;;;;;2.80;2.30;;;13.10;99.90;;;;;;4919354;29;20430;-67
2023/05/03 06:25:34;;;;;;;2.90;2.60;;;13.20;99.90;;;;;;4919463;29;20446;-67
2023/05/03 06:28:00;;;;;;;5.10;3.10;;;13.30;99.90;;;;;;4901252;29;20190;-67
2023/05/03 06:30:27;;;;;;;2.47;2.27;;;13.30;99.90;;;;;;4884107;29;20410;-69
2023/05/03 06:32:52;;;;;;;4.80;3.00;;;13.40;99.90;;;;;;4917040;29;20170;-69
2023/05/03 06:35:20;;;;;;;4.50;3.87;;;13.50;99.90;;;;;;4918159;29;20955;-67
2023/05/03 06:37:46;;;;;;;4.90;3.33;;;13.50;99.90;;;;;;4918027;29;20211;-70
2023/05/03 06:40:12;;;;;;;4.13;3.20;;;13.40;99.90;;;;;;4919434;29;20445;-69
2023/05/03 06:42:37;;;;;;;2.73;2.53;;;13.40;99.90;;;;;;4919711;29;20870;-68
2023/05/03 06:45:04;;;;;;;4.50;3.00;;;13.40;99.90;;;;;;4900798;29;20537;-68
2023/05/03 06:47:29;;;;;;;4.43;2.83;;;13.50;99.90;;;;;;4901095;29;20204;-67
2023/05/03 06:49:55;;;;;;;3.50;2.60;;;13.60;99.90;;;;;;4899269;29;20470;-67
2023/05/03 06:52:21;;;;;;;2.43;2.20;;;13.60;99.90;;;;;;4899654;29;20179;-69
2023/05/03 06:54:46;;;;;;;2.97;2.47;;;13.60;99.90;;;;;;4900142;29;20219;-68
2023/05/03 06:57:12;;;;;;;2.90;2.50;;;13.60;99.90;;;;;;4900174;29;20235;-67
2023/05/03 06:59:40;;;;;;;3.30;2.63;;;13.80;99.90;;;;;;4900369;29;20194;-68
2023/05/03 07:02:06;;;;;;;3.90;2.20;;;13.90;99.90;;;;;;4900367;29;20698;-67
2023/05/03 07:04:32;;;;;;;4.63;3.30;;;14.00;99.90;;;;;;4912224;29;20446;-67
2023/05/03 07:06:57;;;;;;;3.70;3.37;;;14.20;99.90;;;;;;4919003;29;20246;-69
2023/05/03 07:09:23;;;;;;;4.77;3.07;;;14.30;99.90;;;;;;4918709;29;20684;-67
2023/05/03 07:11:50;;;;;;;3.37;3.07;;;14.40;99.90;;;;;;4918904;29;20704;-67
2023/05/03 07:14:16;;;;;;;3.47;3.20;;;14.50;99.90;;;;;;4916657;29;20202;-70
2023/05/03 07:16:41;;;;;;;3.67;3.13;;;14.50;99.90;;;;;;4918912;29;20407;-71
2023/05/03 07:19:07;;;;;;;3.87;3.47;;;14.70;99.90;;;;;;4914550;29;20515;-70
2023/05/03 07:21:33;;;;;;;3.17;2.93;;;14.90;99.90;;;;;;4918323;29;20273;-67
2023/05/03 07:23:59;;;;;;;5.20;3.67;;;15.10;99.90;;;;;;4918330;29;20421;-69
2023/05/03 07:26:26;;;;;;;2.63;2.43;;;15.50;99.90;;;;;;4918283;29;20324;-67
2023/05/03 07:28:52;;;;;;;4.43;3.10;;;16.10;99.90;;;;;;4918472;29;20442;-67
2023/05/03 07:31:18;;;;;;;4.57;3.50;;;16.80;99.90;;;;;;4918436;29;20514;-68
2023/05/03 07:33:43;;;;;;;2.87;2.67;;;17.50;99.90;;;;;;4918212;29;20935;-68
2023/05/03 07:36:10;;;;;;;2.30;2.13;;;18.10;99.70;;;;;;4909881;29;20456;-69
2023/05/03 07:38:36;;;;;;;3.33;3.13;;;18.90;99.30;;;;;;4899725;29;20243;-68
2023/05/03 07:41:02;;;;;;;4.87;2.87;;;20.00;97.40;;;;;;4899412;29;20390;-67
2023/05/03 07:43:28;;;;;;;3.10;2.80;;;20.90;95.30;;;;;;4902439;29;20178;-67
2023/05/03 07:45:54;;;;;;;3.70;3.40;;;21.70;94.00;;;;;;4916392;29;20477;-66
2023/05/03 07:48:20;;;;;;;2.73;2.53;;;22.10;92.80;;;;;;4918227;29;20389;-70
2023/05/03 07:50:45;;;;;;;3.33;2.60;;;22.90;91.60;;;;;;4918074;29;20210;-70
2023/05/03 07:53:11;;;;;;;4.27;3.53;;;23.60;90.10;;;;;;4912874;29;20198;-67
2023/05/03 07:55:37;;;;;;;5.20;3.47;;;24.00;87.50;;;;;;4899006;29;20195;-67
2023/05/03 07:58:03;;;;;;;6.17;3.87;;;24.30;86.00;;;;;;4899163;29;20193;-66
2023/05/03 08:00:29;;;;;;;3.37;3.07;;;24.20;85.30;;;;;;4897951;29;20915;-68
2023/05/03 08:02:55;;;;;;;3.00;2.80;;;24.50;85.10;;;;;;4899422;29;20408;-67
2023/05/03 08:05:22;;;;;;;3.30;3.00;;;24.70;83.50;;;;;;4898401;29;20513;-68
2023/05/03 08:07:48;;;;;;;3.60;3.30;;;24.90;82.60;;;;;;4900725;29;20175;-69
2023/05/03 08:10:14;;;;;;;3.30;3.00;;;25.20;81.50;;;;;;4917193;29;20409;-67
2023/05/03 08:12:40;;;;;;;3.27;2.97;;;25.50;80.10;;;;;;4916191;29;20385;-66
2023/05/03 08:15:06;;;;;;;2.70;2.50;;;26.00;79.50;;;;;;4916748;29;20497;-69
2023/05/03 08:17:42;;;;;;;2.83;2.63;;;26.30;78.70;;;;;;4917680;29;20189;-67
2023/05/03 08:20:08;;;;;;;2.83;2.63;;;26.60;77.70;;;;;;4905389;29;20501;-69
2023/05/03 08:22:36;;;;;;;3.60;3.10;;;26.70;75.10;;;;;;4898666;29;20899;-68
2023/05/03 08:25:03;;;;;;;5.33;3.33;;;26.90;75.40;;;;;;4905433;29;20920;-66
2023/05/03 08:27:29;;;;;;;3.07;2.83;;;26.80;73.90;;;;;;4917656;29;20561;-71
2023/05/03 08:29:54;;;;;;;3.13;2.80;;;26.90;75.30;;;;;;4906511;29;20506;-67
2023/05/03 08:32:21;;;;;;;4.20;3.90;;;27.30;73.70;;;;;;4898712;29;20394;-67
2023/05/03 08:34:47;;;;;;;3.73;3.33;;;27.60;72.70;;;;;;4897947;29;20282;-67
2023/05/03 08:37:13;;;;;;;3.60;3.33;;;27.60;72.00;;;;;;4898202;29;20441;-67
2023/05/03 08:39:38;;;;;;;3.70;3.40;;;27.20;71.50;;;;;;4903982;29;20489;-66
2023/05/03 08:42:08;;;;;;;3.33;3.00;;;27.10;73.00;;;;;;4899732;29;20179;-69
2023/05/03 08:44:39;;;;;;;3.93;3.50;;;27.20;72.20;;;;;;4910805;29;20257;-68
2023/05/03 08:47:06;;;;;;;3.50;3.20;;;27.50;71.50;;;;;;4902789;29;20502;-70
2023/05/03 08:49:36;;;;;;;3.60;3.27;;;27.40;71.70;;;;;;4898011;29;20431;-70
2023/05/03 08:52:05;;;;;;;3.93;3.57;;;27.60;71.20;;;;;;4899060;29;20514;-66
2023/05/03 08:54:30;;;;;;;4.10;3.50;;;27.80;71.30;;;;;;4915894;29;20450;-68
2023/05/03 08:56:56;;;;;;;3.07;2.87;;;28.10;70.10;;;;;;4917039;29;20389;-66
2023/05/03 08:59:23;;;;;;;3.47;3.17;;;28.00;69.90;;;;;;4907244;29;20179;-67
2023/05/03 09:01:49;;;;;;;4.03;3.70;;;27.80;70.00;;;;;;4898117;29;20189;-66
2023/05/03 09:04:16;;;;;;;3.60;3.30;;;27.10;71.00;;;;;;4897437;29;20447;-67
2023/05/03 09:06:41;;;;;;;3.30;3.00;;;26.20;72.00;;;;;;4904757;29;20229;-68
2023/05/03 09:09:07;;;;;;;3.93;3.53;;;25.40;74.90;;;;;;4916891;29;20410;-67
2023/05/03 09:11:34;;;;;;;3.17;2.80;;;24.90;75.60;;;;;;4916047;29;20179;-69
2023/05/03 09:14:17;;;;;;;3.53;3.13;;;24.10;77.20;;;;;;4910897;29;20250;-69
2023/05/03 09:16:45;;;;;;;3.50;3.30;;;23.60;80.20;;;;;;4916432;29;20405;-68
2023/05/03 09:19:11;;;;;;;3.00;2.80;;;23.50;81.00;;;;;;4899695;29;20427;-70
2023/05/03 09:21:42;;;;;;;4.03;3.70;;;23.00;80.70;;;;;;4915916;29;20398;-68
2023/05/03 09:24:16;;;;;;;2.70;2.50;;;22.50;82.10;;;;;;4914821;29;20429;-67
2023/05/03 09:26:42;;;;;;;3.07;2.87;;;21.90;83.80;;;;;;4916485;29;20426;-68
2023/05/03 09:29:08;;;;;;;3.90;3.60;;;21.70;85.60;;;;;;4916116;29;20502;-68
2023/05/03 09:31:35;;;;;;;3.37;3.07;;;21.60;84.90;;;;;;4916740;29;20781;-68
2023/05/03 09:34:03;;;;;;;4.93;3.07;;;21.50;85.20;;;;;;4912403;29;20518;-68
2023/05/03 09:36:45;;;;;;;3.00;2.80;;;21.40;85.70;;;;;;4907554;29;20430;-67
2023/05/03 09:39:18;;;;;;;2.57;2.40;;;20.90;87.30;;;;;;4909730;29;20955;-67
2023/05/03 09:41:45;;;;;;;3.13;2.70;;;21.50;86.70;;;;;;4899542;29;20437;-67
2023/05/03 09:44:11;;;;;;;3.00;2.70;;;22.40;84.80;;;;;;4916182;29;20408;-67
2023/05/03 09:46:37;;;;;;;3.67;2.90;;;22.60;82.70;;;;;;4915965;29;20560;-67
2023/05/03 09:49:03;;;;;;;2.80;2.60;;;22.40;83.10;;;;;;4900288;29;20525;-68
2023/05/03 09:51:30;;;;;;;2.40;2.30;;;22.70;84.70;;;;;;4897729;29;20446;-67
2023/05/03 09:53:58;;;;;;;2.83;2.63;;;22.90;83.10;;;;;;4898542;29;20423;-67
2023/05/03 09:56:25;;;;;;;3.47;2.60;;;23.10;81.70;;;;;;4916500;29;20381;-66
2023/05/03 09:58:52;;;;;;;2.60;2.40;;;23.20;80.60;;;;;;4915912;29;20413;-68
2023/05/03 10:01:21;;;;;;;3.87;3.50;;;23.60;80.40;;;;;;4916346;29;20440;-67
2023/05/03 10:03:49;;;;;;;2.77;2.57;;;24.10;80.10;;;;;;4916057;29;20948;-67
2023/05/03 10:06:34;;;;;;;2.87;2.63;;;24.90;78.40;;;;;;4914814;29;20500;-68
2023/05/03 10:09:05;;;;;;;3.23;2.57;;;25.40;79.20;;;;;;4912928;29;20824;-68
2023/05/03 10:11:34;;;;;;;3.30;3.07;;;26.30;74.50;;;;;;4907392;29;20423;-68
2023/05/03 10:14:00;;;;;;;2.77;2.57;;;26.30;72.60;;;;;;4918735;29;20404;-68
2023/05/03 10:16:31;;;;;;;3.00;2.80;;;25.40;73.60;;;;;;4909229;29;20413;-68
2023/05/03 10:19:10;;;;;;;6.53;2.70;;;24.40;75.60;;;;;;4907636;29;20430;-67
2023/05/03 10:21:58;;;;;;;3.00;2.80;;;24.10;77.40;;;;;;4906862;29;20503;-69
2023/05/03 10:24:24;;;;;;;3.80;3.50;;;24.40;77.90;;;;;;4907489;29;20484;-68
2023/05/03 10:26:50;;;;;;;2.97;2.77;;;25.00;76.10;;;;;;4910072;29;20882;-68
2023/05/03 10:29:37;;;;;;;3.10;2.80;;;25.40;75.40;;;;;;4914711;29;20388;-67
2023/05/03 10:32:04;;;;;;;2.97;2.70;;;25.60;74.20;;;;;;4912596;29;20430;-69
2023/05/03 10:34:34;;;;;;;2.83;2.63;;;25.80;73.90;;;;;;4918747;29;20537;-66
2023/05/03 10:37:02;;;;;;;2.50;2.30;;;25.80;73.40;;;;;;4915126;29;20441;-66
2023/05/03 10:39:29;;;;;;;3.20;2.93;;;25.40;73.10;;;;;;4916621;29;20828;-66
2023/05/03 10:41:59;;;;;;;3.40;3.20;;;25.30;74.40;;;;;;4914193;29;20457;-68
2023/05/03 10:44:26;;;;;;;2.90;2.70;;;24.90;75.20;;;;;;4900171;29;20506;-68
2023/05/03 10:46:53;;;;;;;2.30;2.10;;;24.90;75.50;;;;;;4903501;29;20458;-68
2023/05/03 10:49:20;;;;;;;2.30;2.10;;;25.30;75.40;;;;;;4915209;29;20857;-68
2023/05/03 10:51:46;;;;;;;2.13;1.97;;;25.70;74.00;;;;;;4917685;29;20440;-67
2023/05/03 10:54:12;;;;;;;2.90;2.70;;;25.60;73.80;;;;;;4906518;29;20434;-66
2023/05/03 10:56:48;;;;;;;2.47;2.27;;;25.70;72.80;;;;;;4894628;29;20596;-67
2023/05/03 10:59:14;;;;;;;2.87;2.63;;;25.50;73.70;;;;;;4914853;29;20637;-65
2023/05/03 11:01:42;;;;;;;2.97;2.50;;;25.60;72.40;;;;;;4913298;29;20446;-71
2023/05/03 11:04:12;;;;;;;3.00;2.70;;;24.80;72.10;;;;;;4901318;29;20261;-69
2023/05/03 11:06:44;;;;;;;3.17;2.87;;;24.00;74.40;;;;;;4918791;29;20910;-66
2023/05/03 11:09:13;;;;;;;2.60;2.40;;;23.20;76.50;;;;;;4900388;29;20487;-67
2023/05/03 11:11:40;;;;;;;2.27;2.17;;;22.60;76.90;;;;;;4903241;29;20445;-66
2023/05/03 11:14:07;;;;;;;3.07;2.87;;;22.00;76.70;;;;;;4917675;29;20850;-66
2023/05/03 11:16:35;;;;;;;2.60;2.40;;;21.70;77.20;;;;;;4917132;29;20491;-66
2023/05/03 11:19:01;;;;;;;2.67;2.50;;;21.40;78.80;;;;;;4917175;29;20426;-69
2023/05/03 11:21:27;;;;;;;2.40;2.20;;;21.00;79.50;;;;;;4911587;29;20400;-68
2023/05/03 11:23:53;;;;;;;2.03;1.93;;;20.60;81.50;;;;;;4905298;29;20440;-69
2023/05/03 11:26:24;;;;;;;4.00;2.00;;;20.20;83.90;;;;;;4917121;29;20550;-68
2023/05/03 11:28:50;;;;;;;2.33;2.20;;;19.80;83.40;;;;;;4912267;29;20183;-68
2023/05/03 11:31:16;;;;;;;1.60;1.50;;;19.60;83.50;;;;;;4916957;29;21039;-68
2023/05/03 11:33:42;;;;;;;2.23;1.80;;;19.50;84.00;;;;;;4918550;29;20170;-68
2023/05/03 11:36:08;;;;;;;1.60;1.50;;;19.50;85.00;;;;;;4915597;29;20445;-71
2023/05/03 11:38:35;;;;;;;2.57;2.23;;;19.60;83.20;;;;;;4914232;29;20198;-70
2023/05/03 11:41:12;;;;;;;2.33;2.17;;;19.80;84.70;;;;;;4902089;29;20510;-66
2023/05/03 11:43:48;;;;;;;2.80;2.60;;;19.90;84.70;;;;;;4903382;29;20513;-68
2023/05/03 11:46:21;;;;;;;2.43;2.23;;;19.80;81.90;;;;;;4905714;29;20470;-68
2023/05/03 11:48:47;;;;;;;3.07;1.77;;;19.70;83.90;;;;;;4911023;29;20422;-70
2023/05/03 11:51:14;;;;;;;4.37;1.60;;;19.60;83.00;;;;;;4912407;29;20511;-68
2023/05/03 11:53:42;;;;;;;1.70;1.60;;;19.50;84.70;;;;;;4912114;29;20839;-68
2023/05/03 11:56:17;;;;;;;2.23;2.03;;;19.60;83.10;;;;;;4917182;29;20960;-69
2023/05/03 11:58:57;;;;;;;2.20;1.87;;;19.70;81.60;;;;;;4917035;29;20520;-69
2023/05/03 12:01:27;;;;;;;3.50;2.23;;;19.90;83.20;;;;;;4902414;29;20872;-69
2023/05/03 12:04:01;;;;;;;2.27;2.07;;;20.00;83.90;;;;;;4904941;29;20482;-70
2023/05/03 12:06:31;;;;;;;1.73;1.63;;;19.90;83.30;;;;;;4920744;29;20491;-69
2023/05/03 12:08:57;;;;;;;2.53;2.33;;;20.00;85.50;;;;;;4915464;29;20774;-68
2023/05/03 12:11:23;;;;;;;2.60;2.47;;;19.90;85.20;;;;;;4907602;29;20431;-70
2023/05/03 12:14:00;;;;;;;2.10;1.97;;;19.90;87.70;;;;;;4907147;29;20175;-69
2023/05/03 12:16:26;;;;;;;1.93;1.83;;;20.10;85.60;;;;;;4917179;29;20524;-68
2023/05/03 12:19:01;;;;;;;1.93;1.77;;;20.30;82.90;;;;;;4914585;29;20466;-68
2023/05/03 12:21:44;;;;;;;1.77;1.67;;;20.50;81.30;;;;;;4917865;29;20429;-69
2023/05/03 12:24:09;;;;;;;1.43;1.33;;;20.50;80.70;;;;;;4915639;29;20517;-69
2023/05/03 12:26:35;;;;;;;1.90;1.80;;;20.40;80.60;;;;;;4904430;29;20894;-69
2023/05/03 12:29:00;;;;;;;2.60;2.50;;;20.40;78.70;;;;;;4899133;29;20179;-68
2023/05/03 12:31:28;;;;;;;2.47;2.27;;;20.30;78.70;;;;;;4899927;29;20182;-69
2023/05/03 12:33:54;;;;;;;1.90;1.80;;;20.10;78.80;;;;;;4902347;29;20642;-69
2023/05/03 12:36:20;;;;;;;2.53;2.43;;;20.10;80.10;;;;;;4915420;29;20509;-68
2023/05/03 12:38:47;;;;;;;1.83;1.73;;;20.10;83.10;;;;;;4916591;29;20923;-68
2023/05/03 12:41:14;;;;;;;1.67;1.57;;;20.10;81.00;;;;;;4916042;29;20577;-69
2023/05/03 12:43:40;;;;;;;2.40;2.20;;;20.20;81.50;;;;;;4915530;29;20426;-69
2023/05/03 12:46:05;;;;;;;2.03;1.83;;;20.40;80.10;;;;;;4917542;29;20466;-69
2023/05/03 12:48:31;;;;;;;2.10;1.90;;;20.60;80.10;;;;;;4917330;29;20249;-70
2023/05/03 12:50:57;;;;;;;1.87;1.77;;;20.70;79.10;;;;;;4917695;29;20162;-69
2023/05/03 12:53:24;;;;;;;2.30;2.03;;;20.70;78.30;;;;;;4917147;29;20174;-69
2023/05/03 12:55:50;;;;;;;3.10;2.57;;;20.70;78.40;;;;;;4915347;29;20292;-69
2023/05/03 12:58:16;;;;;;;2.10;1.80;;;20.50;78.60;;;;;;4917408;29;20410;-69
2023/05/03 13:00:43;;;;;;;2.63;2.07;;;20.40;79.10;;;;;;4917140;29;20434;-69
2023/05/03 13:03:09;;;;;;;1.80;1.70;;;20.20;78.60;;;;;;4917065;29;20912;-69
2023/05/03 13:05:35;;;;;;;1.50;1.37;;;20.20;77.40;;;;;;4900480;29;20533;-69
2023/05/03 13:08:00;;;;;;;1.80;1.70;;;20.10;75.50;;;;;;4898537;29;20175;-68
2023/05/03 13:10:28;;;;;;;2.20;2.00;;;19.90;75.80;;;;;;4898923;29;21336;-69
2023/05/03 13:12:55;;;;;;;1.93;1.83;;;19.80;76.30;;;;;;4898320;29;20254;-69
2023/05/03 13:15:24;;;;;;;1.90;1.70;;;19.70;76.60;;;;;;4897788;29;20442;-69
2023/05/03 13:17:50;;;;;;;2.30;1.57;;;19.70;77.10;;;;;;4898455;29;20836;-68
2023/05/03 13:20:16;;;;;;;2.83;2.13;;;19.80;78.00;;;;;;4911477;29;20430;-69
2023/05/03 13:22:41;;;;;;;2.07;1.97;;;20.00;79.50;;;;;;4916854;29;20387;-69
2023/05/03 13:25:07;;;;;;;1.80;1.70;;;20.10;79.30;;;;;;4914881;29;20206;-68
2023/05/03 13:27:33;;;;;;;2.30;2.20;;;20.20;77.50;;;;;;4916643;29;20205;-68
2023/05/03 13:30:00;;;;;;;1.33;1.23;;;20.30;80.50;;;;;;4914728;29;20206;-68
2023/05/03 13:32:26;;;;;;;1.73;1.60;;;20.30;77.10;;;;;;4916955;29;20166;-68
2023/05/03 13:34:51;;;;;;;2.07;1.93;;;20.20;76.80;;;;;;4908395;29;20513;-68
2023/05/03 13:37:18;;;;;;;2.07;1.73;;;20.10;77.20;;;;;;4896682;29;20274;-69
2023/05/03 13:39:44;;;;;;;1.40;1.30;;;19.90;76.70;;;;;;4896880;29;20338;-68
2023/05/03 13:42:10;;;;;;;1.70;1.60;;;19.90;76.80;;;;;;4898164;29;20414;-69
2023/05/03 13:44:36;;;;;;;2.40;2.20;;;19.90;76.50;;;;;;4897687;29;20802;-69
2023/05/03 13:47:02;;;;;;;1.60;1.50;;;19.80;76.70;;;;;;4900335;29;20699;-68
2023/05/03 13:49:27;;;;;;;1.60;1.50;;;19.80;77.20;;;;;;4904354;29;20178;-69
2023/05/03 13:51:53;;;;;;;1.37;1.27;;;19.80;76.50;;;;;;4920662;29;20900;-69
2023/05/03 13:54:19;;;;;;;1.50;1.40;;;20.00;77.80;;;;;;4918236;29;20198;-69
2023/05/03 13:56:45;;;;;;;1.60;1.50;;;20.10;78.40;;;;;;4918959;29;20178;-69
2023/05/03 13:59:14;;;;;;;1.70;1.60;;;20.30;76.80;;;;;;4919803;29;21033;-69
2023/05/03 14:01:41;;;;;;;1.63;1.53;;;20.50;73.80;;;;;;4920095;29;20490;-69
2023/05/03 14:04:08;;;;;;;1.33;1.20;;;20.60;73.40;;;;;;4878056;29;20424;-69
2023/05/03 14:06:35;;;;;;;1.63;1.47;;;20.60;74.80;;;;;;4824935;29;20876;-68
2023/05/03 14:09:01;;;;;;;1.87;1.77;;;20.70;75.20;;;;;;4826047;29;20414;-69
2023/05/03 14:11:27;;;;;;;1.63;1.53;;;20.60;75.10;;;;;;4843449;29;20418;-70
2023/05/03 14:13:53;;;;;;;4.00;2.20;;;20.50;75.40;;;;;;4842658;29;20426;-69
2023/05/03 14:16:21;;;;;;;2.00;1.90;;;20.40;76.20;;;;;;4843158;29;20497;-71
2023/05/03 14:18:51;;;;;;;1.77;1.60;;;20.20;75.50;;;;;;4843402;29;20429;-70
2023/05/03 14:21:17;;;;;;;1.83;1.73;;;20.00;74.50;;;;;;4827508;29;20802;-69
2023/05/03 14:23:48;;;;;;;1.93;1.83;;;19.90;73.50;;;;;;4842787;29;20428;-69
2023/05/03 14:26:16;;;;;;;1.17;1.17;;;19.80;73.90;;;;;;4842778;29;21026;-70
2023/05/03 14:28:42;;;;;;;1.40;1.30;;;19.90;73.60;;;;;;4843144;29;20845;-69
2023/05/03 14:31:08;;;;;;;2.20;1.57;;;19.90;74.00;;;;;;4827417;29;20445;-69
2023/05/03 14:33:35;;;;;;;1.63;1.53;;;20.00;75.40;;;;;;4842445;29;20463;-70
2023/05/03 14:36:02;;;;;;;2.17;1.97;;;20.10;77.20;;;;;;4874370;29;20463;-70
2023/05/03 14:38:28;;;;;;;2.90;2.13;;;20.10;77.20;;;;;;4914516;29;20418;-69
2023/05/03 14:40:54;;;;;;;1.90;1.80;;;20.20;76.50;;;;;;4919179;29;20414;-69
2023/05/03 14:43:20;;;;;;;1.60;1.50;;;20.10;76.10;;;;;;4918526;29;20444;-69
2023/05/03 14:45:47;;;;;;;1.40;1.30;;;20.00;76.60;;;;;;4919204;29;20194;-68
2023/05/03 14:48:13;;;;;;;1.23;1.23;;;19.90;78.00;;;;;;4919031;29;20485;-69
2023/05/03 14:50:39;;;;;;;1.73;1.43;;;19.80;74.50;;;;;;4919339;29;20410;-69
2023/05/03 14:53:04;;;;;;;1.50;1.40;;;19.70;70.70;;;;;;4918587;29;20418;-72
2023/05/03 14:55:30;;;;;;;1.60;1.50;;;19.50;71.50;;;;;;4918991;29;20193;-68
2023/05/03 14:57:56;;;;;;;1.20;1.20;;;19.50;73.30;;;;;;4915201;29;20466;-69
2023/05/03 15:00:22;;;;;;;1.50;1.40;;;19.60;74.10;;;;;;4900465;29;20190;-69
2023/05/03 15:02:53;;;;;;;1.80;1.70;;;19.50;74.60;;;;;;4914860;29;20685;-70
2023/05/03 15:05:18;;;;;;;1.50;1.40;;;19.50;74.30;;;;;;4899892;29;20458;-70
2023/05/03 15:07:44;;;;;;;1.70;1.60;;;19.50;74.80;;;;;;4900018;29;20465;-70
2023/05/03 15:10:10;;;;;;;2.00;1.70;;;19.50;71.50;;;;;;4900205;29;20179;-71
2023/05/03 15:12:36;;;;;;;1.03;1.03;;;19.40;71.00;;;;;;4900752;29;20186;-69
2023/05/03 15:15:03;;;;;;;2.00;1.10;;;19.40;71.10;;;;;;4918557;29;20237;-70
2023/05/03 15:17:29;;;;;;;2.00;1.70;;;19.40;71.90;;;;;;4917225;29;20418;-71
2023/05/03 15:19:55;;;;;;;2.03;1.83;;;19.40;70.20;;;;;;4918839;29;20509;-69
2023/05/03 15:22:21;;;;;;;1.60;1.50;;;19.30;70.80;;;;;;4912053;29;20442;-69
2023/05/03 15:24:46;;;;;;;1.63;1.53;;;19.30;71.20;;;;;;4899282;29;20570;-70
2023/05/03 15:27:12;;;;;;;1.47;1.33;;;19.30;71.40;;;;;;4911718;29;20577;-68
2023/05/03 15:29:37;;;;;;;1.50;1.40;;;19.30;70.00;;;;;;4906012;29;20182;-70
2023/05/03 15:32:04;;;;;;;1.47;1.10;;;19.30;70.20;;;;;;4918240;29;20321;-68
2023/05/03 15:34:31;;;;;;;1.50;1.40;;;19.40;70.60;;;;;;4909074;29;20601;-67
2023/05/03 15:36:57;;;;;;;3.13;1.27;;;19.40;71.20;;;;;;4918815;29;20842;-68
2023/05/03 15:39:23;;;;;;;1.17;1.07;;;19.40;72.50;;;;;;4912769;29;20457;-69
2023/05/03 15:41:49;;;;;;;4.93;1.43;;;19.40;72.90;;;;;;4918841;29;20234;-68
2023/05/03 15:44:15;;;;;;;1.40;1.40;;;19.30;73.10;;;;;;4904794;29;20211;-69
2023/05/03 15:46:41;;;;;;;1.10;1.10;;;19.30;72.90;;;;;;4899850;29;20703;-69
2023/05/03 15:49:07;;;;;;;1.20;1.20;;;19.20;73.50;;;;;;4912154;29;20426;-69
2023/05/03 15:51:33;;;;;;;1.90;1.80;;;19.20;74.20;;;;;;4919972;29;20428;-69
2023/05/03 15:53:58;;;;;;;1.50;1.40;;;19.20;74.10;;;;;;4910227;29;20490;-68
2023/05/03 15:56:26;;;;;;;1.33;1.33;;;19.30;72.70;;;;;;4903452;29;20401;-68
2023/05/03 15:58:52;;;;;;;1.50;1.40;;;19.20;72.30;;;;;;4910693;29;20209;-69
2023/05/03 16:01:17;;;;;;;1.60;1.50;;;19.30;70.90;;;;;;4922976;29;20417;-68
2023/05/03 16:03:43;;;;;;;1.33;1.33;;;19.20;70.20;;;;;;4922700;29;20205;-67
2023/05/03 16:06:09;;;;;;;1.90;1.80;;;19.20;70.00;;;;;;4919736;29;20222;-68
2023/05/03 16:08:34;;;;;;;1.07;1.03;;;19.20;70.90;;;;;;4912182;29;20634;-68
2023/05/03 16:11:00;;;;;;;1.37;1.30;;;19.20;71.70;;;;;;4903939;29;20189;-68
2023/05/03 16:13:27;;;;;;;1.20;1.20;;;19.20;72.50;;;;;;4917988;29;20184;-67
2023/05/03 16:15:55;;;;;;;1.90;1.40;;;19.20;71.80;;;;;;4916297;29;20447;-69
2023/05/03 16:18:22;;;;;;;1.90;1.40;;;19.10;71.90;;;;;;4907072;29;20487;-69
2023/05/03 16:20:49;;;;;;;1.60;1.37;;;19.10;71.60;;;;;;4912366;29;20435;-69
2023/05/03 16:23:14;;;;;;;1.47;1.37;;;19.10;72.10;;;;;;4899157;29;20416;-68
2023/05/03 16:25:40;;;;;;;1.40;1.37;;;19.10;72.70;;;;;;4899472;29;20502;-69
2023/05/03 16:28:06;;;;;;;2.13;2.03;;;19.10;71.00;;;;;;4898635;29;20536;-70
2023/05/03 16:30:32;;;;;;;1.20;1.10;;;19.10;70.00;;;;;;4898776;29;20230;-69
2023/05/03 16:32:58;;;;;;;1.03;1.03;;;19.10;69.70;;;;;;4898831;29;20185;-70
2023/05/03 16:35:23;;;;;;;1.30;1.20;;;19.10;68.90;;;;;;4902599;29;20819;-70
2023/05/03 16:37:50;;;;;;;1.27;1.27;;;19.00;68.70;;;;;;4915899;29;20196;-69
2023/05/03 16:40:16;;;;;;;1.30;1.30;;;19.00;68.60;;;;;;4903728;29;20229;-69
2023/05/03 16:42:42;;;;;;;1.40;1.40;;;18.90;67.50;;;;;;4898448;29;20427;-69
2023/05/03 16:45:09;;;;;;;1.23;1.10;;;18.90;67.50;;;;;;4898142;29;20440;-69
2023/05/03 16:47:38;;;;;;;1.13;1.07;;;18.90;67.90;;;;;;4896888;29;20751;-68
2023/05/03 16:50:07;;;;;;;1.70;1.60;;;18.90;68.90;;;;;;4897982;29;20431;-68